createdAt,value
2019-03-29T00:01:14.001Z,4.61
2019-03-29T00:03:46.667Z,4.62
2019-03-29T00:06:19.776Z,4.66
2019-03-29T00:08:52.674Z,4.68
2019-03-29T00:11:25.241Z,4.61
2019-03-29T00:13:57.708Z,4.57
2019-03-29T00:16:31.150Z,4.64
2019-03-29T00:19:03.766Z,4.71
2019-03-29T00:21:39.726Z,4.70
2019-03-29T00:24:12.416Z,4.69
2019-03-29T00:26:50.869Z,4.70
2019-03-29T00:29:23.752Z,4.70
2019-03-29T00:31:56.692Z,4.74
2019-03-29T00:34:29.298Z,4.74
2019-03-29T00:37:11.122Z,4.72
2019-03-29T00:39:43.837Z,4.81
2019-03-29T00:42:23.041Z,4.75
2019-03-29T00:44:55.917Z,4.71
2019-03-29T00:47:28.406Z,4.68
2019-03-29T00:50:01.055Z,4.65
2019-03-29T00:52:43.007Z,4.65
2019-03-29T00:55:15.845Z,4.64
2019-03-29T00:57:48.403Z,4.66
2019-03-29T01:00:21.148Z,4.58
2019-03-29T01:03:04.293Z,4.60
2019-03-29T01:05:36.833Z,4.49
2019-03-29T01:08:10.542Z,4.43
2019-03-29T01:10:43.524Z,4.39
2019-03-29T01:13:23.296Z,4.30
2019-03-29T01:15:55.648Z,4.29
2019-03-29T01:18:31.324Z,4.36
2019-03-29T01:21:03.777Z,4.53
2019-03-29T01:23:45.285Z,4.51
2019-03-29T01:26:17.894Z,4.47
2019-03-29T01:28:53.892Z,4.64
2019-03-29T01:31:27.914Z,4.62
2019-03-29T01:34:03.542Z,4.65
2019-03-29T01:36:36.924Z,4.83
2019-03-29T01:39:18.199Z,4.86
2019-03-29T01:41:50.743Z,4.95
2019-03-29T01:44:23.280Z,4.91
2019-03-29T01:46:55.908Z,4.90
2019-03-29T01:49:36.176Z,4.83
2019-03-29T01:52:09.018Z,4.77
2019-03-29T01:54:41.466Z,4.69
2019-03-29T01:57:14.029Z,4.60
2019-03-29T01:59:49.330Z,4.50
2019-03-29T02:02:21.886Z,4.39
2019-03-29T02:05:05.812Z,4.31
2019-03-29T02:07:38.474Z,4.36
2019-03-29T02:10:12.665Z,4.37
2019-03-29T02:12:45.353Z,4.40
2019-03-29T02:15:21.154Z,4.45
2019-03-29T02:17:54.153Z,4.41
2019-03-29T02:20:34.602Z,4.35
2019-03-29T02:23:07.643Z,4.35
2019-03-29T02:25:47.985Z,4.42
2019-03-29T02:28:20.425Z,4.40
2019-03-29T02:31:02.546Z,4.47
2019-03-29T02:33:35.216Z,4.48
2019-03-29T02:36:10.570Z,4.58
2019-03-29T02:38:55.295Z,4.61
2019-03-29T02:41:18.972Z,4.55
2019-03-29T02:43:51.939Z,4.45
2019-03-29T02:46:25.695Z,4.27
2019-03-29T02:48:58.753Z,4.11
2019-03-29T02:51:40.825Z,3.99
2019-03-29T02:54:13.651Z,3.90
2019-03-29T02:56:48.873Z,3.89
2019-03-29T02:59:21.406Z,3.96
2019-03-29T03:01:54.045Z,4.14
2019-03-29T03:04:27.026Z,4.53
2019-03-29T03:07:11.826Z,4.50
2019-03-29T03:09:44.392Z,4.57
2019-03-29T03:12:20.092Z,4.61
2019-03-29T03:14:52.726Z,4.65
2019-03-29T03:17:25.284Z,4.63
2019-03-29T03:19:57.749Z,4.51
2019-03-29T03:22:32.780Z,4.37
2019-03-29T03:25:05.401Z,4.26
2019-03-29T03:27:42.392Z,4.08
2019-03-29T03:30:15.398Z,3.96
2019-03-29T03:32:54.209Z,3.89
2019-03-29T03:35:26.891Z,3.75
2019-03-29T03:38:05.525Z,3.67
2019-03-29T03:40:38.181Z,3.57
2019-03-29T03:43:19.445Z,3.51
2019-03-29T03:45:52.110Z,3.45
2019-03-29T03:48:36.002Z,3.40
2019-03-29T03:51:09.137Z,3.31
2019-03-29T03:53:50.350Z,3.26
2019-03-29T03:56:23.336Z,3.17
2019-03-29T03:58:56.572Z,3.08
2019-03-29T04:01:29.497Z,2.97
2019-03-29T04:04:05.045Z,2.85
2019-03-29T04:06:37.619Z,2.75
2019-03-29T04:09:10.919Z,2.70
2019-03-29T04:11:43.441Z,2.75
2019-03-29T04:14:18.823Z,2.58
2019-03-29T04:16:51.249Z,2.45
2019-03-29T04:19:41.209Z,2.37
2019-03-29T04:22:13.694Z,2.27
2019-03-29T04:24:46.165Z,2.14
2019-03-29T04:27:19.627Z,2.07
2019-03-29T04:29:55.151Z,1.99
2019-03-29T04:32:27.712Z,1.90
2019-03-29T04:35:00.469Z,1.87
2019-03-29T04:37:32.907Z,1.85
2019-03-29T04:40:17.703Z,1.84
2019-03-29T04:42:50.255Z,1.76
2019-03-29T04:45:28.861Z,1.84
2019-03-29T04:48:01.353Z,2.16
2019-03-29T04:50:36.762Z,2.53
2019-03-29T04:53:09.329Z,2.85
2019-03-29T04:55:44.846Z,3.28
2019-03-29T04:58:17.372Z,3.56
2019-03-29T05:00:58.600Z,3.67
2019-03-29T05:03:31.233Z,3.93
2019-03-29T05:06:06.614Z,3.92
2019-03-29T05:08:39.100Z,3.99
2019-03-29T05:11:19.834Z,3.96
2019-03-29T05:13:52.354Z,3.90
2019-03-29T05:16:28.069Z,3.87
2019-03-29T05:19:00.529Z,3.80
2019-03-29T05:21:39.464Z,3.71
2019-03-29T05:24:11.970Z,3.62
2019-03-29T05:26:52.793Z,3.48
2019-03-29T05:29:25.447Z,3.39
2019-03-29T05:31:58.009Z,3.51
2019-03-29T05:34:30.591Z,4.11
2019-03-29T05:37:11.468Z,5.05
2019-03-29T05:39:43.885Z,5.80
2019-03-29T05:42:22.348Z,6.12
2019-03-29T05:44:55.111Z,6.61
2019-03-29T05:47:30.862Z,7.12
2019-03-29T05:50:03.462Z,7.64
2019-03-29T05:52:35.995Z,8.16
2019-03-29T05:55:08.786Z,8.61
2019-03-29T05:57:47.484Z,8.98
2019-03-29T06:00:20.827Z,9.38
2019-03-29T06:03:04.226Z,9.88
2019-03-29T06:05:37.000Z,10.24
2019-03-29T06:08:09.580Z,10.71
2019-03-29T06:10:49.085Z,11.24
2019-03-29T06:13:21.171Z,11.64
2019-03-29T06:15:54.696Z,12.33
2019-03-29T06:18:30.395Z,12.91
2019-03-29T06:21:03.859Z,13.57
2019-03-29T06:23:40.217Z,13.80
2019-03-29T06:26:12.830Z,14.00
2019-03-29T06:28:49.579Z,13.97
2019-03-29T06:31:22.312Z,13.84
2019-03-29T06:33:58.916Z,14.10
2019-03-29T06:36:34.096Z,14.23
2019-03-29T06:39:21.167Z,14.54
2019-03-29T06:41:53.370Z,14.67
2019-03-29T06:44:26.297Z,14.91
2019-03-29T06:46:59.552Z,14.73
2019-03-29T06:49:32.171Z,15.20
2019-03-29T06:52:04.574Z,16.01
2019-03-29T06:54:37.372Z,16.35
2019-03-29T06:57:15.891Z,16.79
2019-03-29T06:59:48.621Z,17.20
2019-03-29T07:02:28.678Z,17.06
2019-03-29T07:05:01.332Z,17.20
2019-03-29T07:07:44.429Z,17.70
2019-03-29T07:10:16.727Z,17.86
2019-03-29T07:12:50.178Z,17.75
2019-03-29T07:15:22.968Z,18.04
2019-03-29T07:17:55.610Z,18.34
2019-03-29T07:20:28.537Z,18.52
2019-03-29T07:23:11.830Z,18.75
2019-03-29T07:25:44.666Z,18.98
2019-03-29T07:28:19.985Z,18.93
2019-03-29T07:30:52.704Z,19.06
2019-03-29T07:33:29.500Z,19.22
2019-03-29T07:36:02.197Z,19.63
2019-03-29T07:38:41.118Z,19.55
2019-03-29T07:41:30.733Z,20.09
2019-03-29T07:43:51.519Z,19.75
2019-03-29T07:46:24.356Z,19.97
2019-03-29T07:48:57.052Z,20.20
2019-03-29T07:51:29.817Z,20.58
2019-03-29T07:54:12.651Z,20.37
2019-03-29T07:56:45.337Z,20.92
2019-03-29T07:59:18.104Z,20.87
2019-03-29T08:01:51.041Z,21.49
2019-03-29T08:04:30.986Z,22.40
2019-03-29T08:07:03.728Z,21.89
2019-03-29T08:09:50.024Z,22.26
2019-03-29T08:12:23.937Z,22.73
2019-03-29T08:14:56.803Z,22.70
2019-03-29T08:17:29.489Z,22.53
2019-03-29T08:20:36.582Z,22.55
2019-03-29T08:22:36.299Z,23.40
2019-03-29T08:25:13.107Z,23.35
2019-03-29T08:27:45.676Z,23.30
2019-03-29T08:30:21.527Z,23.51
2019-03-29T08:32:54.248Z,22.79
2019-03-29T08:35:37.516Z,22.26
2019-03-29T08:38:10.120Z,22.66
2019-03-29T08:40:45.215Z,22.27
2019-03-29T08:43:16.902Z,23.07
2019-03-29T08:45:57.559Z,22.36
2019-03-29T08:48:30.049Z,22.72
2019-03-29T08:51:02.650Z,22.87
2019-03-29T08:53:35.056Z,23.57
2019-03-29T08:56:19.214Z,24.34
2019-03-29T08:58:55.368Z,23.37
2019-03-29T09:01:28.067Z,22.96
2019-03-29T09:04:05.702Z,21.93
2019-03-29T09:06:37.584Z,22.06
2019-03-29T09:09:12.502Z,21.31
2019-03-29T09:11:45.349Z,21.78
2019-03-29T09:14:18.539Z,21.78
2019-03-29T09:16:54.043Z,21.68
2019-03-29T09:19:26.700Z,21.71
2019-03-29T09:22:08.338Z,21.93
2019-03-29T09:24:42.177Z,21.74
2019-03-29T09:27:18.279Z,23.19
2019-03-29T09:29:50.702Z,23.94
2019-03-29T09:32:27.544Z,23.47
2019-03-29T09:35:00.709Z,24.03
2019-03-29T09:37:33.784Z,24.97
2019-03-29T09:40:08.146Z,25.76
2019-03-29T09:43:06.834Z,26.25
2019-03-29T09:45:27.696Z,27.09
2019-03-29T09:48:00.398Z,23.59
2019-03-29T09:50:33.141Z,23.02
2019-03-29T09:53:12.006Z,23.39
2019-03-29T09:55:45.910Z,22.98
2019-03-29T09:58:18.433Z,22.08
2019-03-29T10:00:51.197Z,23.03
2019-03-29T10:03:27.460Z,23.66
2019-03-29T10:06:00.577Z,23.23
2019-03-29T10:08:43.871Z,23.78
2019-03-29T10:11:16.432Z,23.14
2019-03-29T10:13:50.182Z,24.14
2019-03-29T10:16:25.937Z,24.24
2019-03-29T10:18:58.961Z,24.60
2019-03-29T10:21:34.056Z,25.08
2019-03-29T10:24:12.252Z,24.51
2019-03-29T10:26:45.738Z,23.71
2019-03-29T10:29:18.343Z,24.10
2019-03-29T10:31:51.362Z,24.74
2019-03-29T10:34:33.092Z,25.99
2019-03-29T10:37:05.903Z,25.36
2019-03-29T10:39:43.545Z,26.02
2019-03-29T10:42:16.941Z,24.09
2019-03-29T10:44:51.008Z,24.46
2019-03-29T10:47:42.070Z,24.48
2019-03-29T10:50:03.560Z,25.75
2019-03-29T10:52:36.542Z,24.35
2019-03-29T10:55:12.075Z,24.55
2019-03-29T10:57:44.998Z,24.45
2019-03-29T11:00:39.506Z,25.53
2019-03-29T11:03:12.895Z,26.61
2019-03-29T11:05:52.077Z,25.93
2019-03-29T11:08:26.015Z,25.90
2019-03-29T11:10:59.272Z,25.61
2019-03-29T11:13:31.914Z,24.58
2019-03-29T11:16:04.992Z,24.66
2019-03-29T11:18:38.105Z,25.10
2019-03-29T11:21:11.221Z,25.06
2019-03-29T11:23:43.821Z,25.48
2019-03-29T11:26:19.728Z,25.28
2019-03-29T11:28:52.981Z,24.93
2019-03-29T11:31:25.960Z,25.60
2019-03-29T11:33:58.680Z,25.84
2019-03-29T11:36:33.148Z,25.08
2019-03-29T11:39:07.342Z,25.88
2019-03-29T11:41:42.790Z,25.84
2019-03-29T11:44:18.575Z,25.27
2019-03-29T11:47:00.131Z,24.78
2019-03-29T11:49:33.513Z,23.18
2019-03-29T11:52:06.222Z,23.21
2019-03-29T11:54:39.964Z,23.25
2019-03-29T11:57:20.249Z,24.15
2019-03-29T11:59:53.091Z,25.20
2019-03-29T12:02:31.574Z,24.55
2019-03-29T12:05:01.601Z,24.11
2019-03-29T12:07:37.167Z,23.78
2019-03-29T12:10:10.483Z,24.17
2019-03-29T12:12:54.357Z,24.54
2019-03-29T12:15:27.407Z,24.82
2019-03-29T12:18:00.718Z,24.87
2019-03-29T12:20:33.579Z,25.32
2019-03-29T12:23:06.619Z,24.55
2019-03-29T12:25:39.397Z,25.00
2019-03-29T12:28:15.523Z,24.99
2019-03-29T12:30:49.278Z,24.99
2019-03-29T12:33:25.165Z,24.62
2019-03-29T12:35:57.891Z,24.19
2019-03-29T12:38:36.937Z,25.05
2019-03-29T12:41:10.040Z,24.72
2019-03-29T12:43:55.701Z,23.79
2019-03-29T12:46:27.281Z,23.89
2019-03-29T12:49:00.695Z,24.56
2019-03-29T12:51:33.499Z,25.09
2019-03-29T12:54:12.037Z,23.91
2019-03-29T12:56:47.896Z,24.60
2019-03-29T12:59:24.127Z,24.28
2019-03-29T13:01:57.003Z,24.83
2019-03-29T13:04:29.924Z,24.92
2019-03-29T13:07:03.506Z,25.07
2019-03-29T13:09:41.162Z,25.31
2019-03-29T13:12:14.230Z,25.74
2019-03-29T13:14:46.721Z,25.68
2019-03-29T13:17:19.431Z,25.53
2019-03-29T13:20:03.566Z,24.86
2019-03-29T13:22:36.741Z,24.65
2019-03-29T13:25:12.529Z,23.99
2019-03-29T13:27:45.227Z,23.84
2019-03-29T13:30:21.382Z,23.86
2019-03-29T13:32:54.995Z,24.06
2019-03-29T13:35:34.209Z,24.58
2019-03-29T13:38:08.126Z,24.83
2019-03-29T13:40:43.930Z,24.94
2019-03-29T13:43:17.177Z,24.23
2019-03-29T13:45:54.120Z,24.02
2019-03-29T13:48:27.167Z,24.50
2019-03-29T13:51:00.014Z,24.86
2019-03-29T13:53:33.154Z,24.84
2019-03-29T13:56:30.688Z,24.97
2019-03-29T13:59:03.894Z,24.90
2019-03-29T14:01:38.289Z,24.80
2019-03-29T14:04:11.053Z,24.65
2019-03-29T14:06:44.139Z,24.37
2019-03-29T14:09:16.838Z,24.49
2019-03-29T14:11:51.300Z,24.66
2019-03-29T14:14:37.649Z,24.63
2019-03-29T14:17:00.444Z,24.57
2019-03-29T14:19:34.001Z,24.33
2019-03-29T14:22:07.020Z,23.99
2019-03-29T14:24:39.576Z,24.10
2019-03-29T14:27:18.504Z,23.10
2019-03-29T14:30:03.524Z,22.46
2019-03-29T14:32:26.916Z,22.69
2019-03-29T14:34:59.919Z,22.87
2019-03-29T14:37:40.507Z,22.71
2019-03-29T14:40:15.882Z,22.29
2019-03-29T14:42:50.219Z,21.79
2019-03-29T14:45:23.181Z,21.66
2019-03-29T14:48:04.675Z,21.13
2019-03-29T14:50:37.718Z,21.10
2019-03-29T14:53:14.593Z,21.40
2019-03-29T14:55:47.445Z,20.88
2019-03-29T14:58:23.436Z,21.63
2019-03-29T15:00:55.921Z,21.58
2019-03-29T15:03:32.993Z,21.75
2019-03-29T15:06:06.444Z,21.88
2019-03-29T15:08:42.000Z,21.83
2019-03-29T15:11:22.197Z,21.75
2019-03-29T15:13:49.341Z,21.98
2019-03-29T15:16:23.342Z,21.96
2019-03-29T15:18:56.405Z,21.66
2019-03-29T15:21:29.341Z,21.27
2019-03-29T15:24:09.235Z,21.01
2019-03-29T15:26:42.081Z,21.19
2019-03-29T15:29:18.299Z,21.04
2019-03-29T15:31:56.229Z,21.10
2019-03-29T15:34:31.765Z,21.18
2019-03-29T15:37:05.428Z,20.97
2019-03-29T15:39:44.385Z,20.84
2019-03-29T15:42:20.337Z,20.92
2019-03-29T15:44:51.424Z,20.81
2019-03-29T15:47:24.148Z,20.63
2019-03-29T15:50:13.322Z,20.49
2019-03-29T15:52:45.964Z,20.32
2019-03-29T15:55:19.156Z,20.08
2019-03-29T15:57:52.502Z,20.10
2019-03-29T16:00:25.207Z,19.80
2019-03-29T16:02:57.670Z,19.66
2019-03-29T16:05:30.283Z,19.71
2019-03-29T16:08:03.535Z,19.68
2019-03-29T16:10:46.345Z,19.50
2019-03-29T16:13:19.112Z,19.24
2019-03-29T16:15:54.662Z,19.21
2019-03-29T16:18:27.361Z,19.12
2019-03-29T16:21:00.798Z,18.87
2019-03-29T16:23:34.776Z,18.52
2019-03-29T16:26:17.050Z,18.38
2019-03-29T16:28:50.877Z,18.04
2019-03-29T16:31:26.781Z,18.00
2019-03-29T16:34:00.102Z,18.08
2019-03-29T16:36:38.954Z,18.01
2019-03-29T16:39:12.382Z,17.84
2019-03-29T16:41:45.049Z,17.71
2019-03-29T16:44:19.187Z,17.32
2019-03-29T16:46:52.374Z,17.15
2019-03-29T16:49:26.187Z,16.92
2019-03-29T16:52:14.153Z,16.71
2019-03-29T16:54:46.919Z,16.53
2019-03-29T16:57:20.113Z,16.35
2019-03-29T16:59:52.750Z,16.21
2019-03-29T17:02:25.842Z,16.06
2019-03-29T17:04:58.664Z,15.93
2019-03-29T17:07:40.340Z,15.79
2019-03-29T17:10:13.112Z,15.68
2019-03-29T17:12:52.118Z,15.58
2019-03-29T17:15:24.078Z,15.44
2019-03-29T17:17:57.229Z,15.32
2019-03-29T17:20:30.522Z,15.21
2019-03-29T17:23:11.498Z,15.10
2019-03-29T17:25:44.516Z,14.93
2019-03-29T17:28:17.792Z,14.77
2019-03-29T17:31:02.166Z,14.73
2019-03-29T17:33:35.115Z,14.58
2019-03-29T17:36:07.900Z,14.54
2019-03-29T17:38:42.114Z,14.43
2019-03-29T17:41:15.205Z,14.39
2019-03-29T17:43:51.034Z,14.20
2019-03-29T17:46:26.592Z,14.10
2019-03-29T17:48:59.331Z,14.07
2019-03-29T17:51:32.410Z,13.92
2019-03-29T17:54:16.795Z,13.83
2019-03-29T17:56:49.724Z,13.68
2019-03-29T17:59:25.706Z,13.51
2019-03-29T18:02:09.297Z,13.36
2019-03-29T18:04:34.327Z,13.30
2019-03-29T18:07:08.052Z,13.20
2019-03-29T18:09:41.022Z,13.08
2019-03-29T18:12:14.150Z,12.88
2019-03-29T18:14:57.367Z,12.69
2019-03-29T18:17:30.096Z,12.52
2019-03-29T18:20:02.910Z,12.37
2019-03-29T18:22:35.905Z,12.24
2019-03-29T18:25:09.634Z,12.14
2019-03-29T18:27:42.684Z,12.09
2019-03-29T18:30:37.669Z,12.00
2019-03-29T18:33:10.279Z,11.91
2019-03-29T18:35:43.182Z,11.77
2019-03-29T18:38:17.388Z,11.66
2019-03-29T18:40:49.972Z,11.55
2019-03-29T18:43:23.235Z,11.54
2019-03-29T18:45:56.332Z,11.35
2019-03-29T18:48:29.741Z,11.23
2019-03-29T18:51:04.135Z,11.13
2019-03-29T18:53:38.421Z,11.10
2019-03-29T18:56:12.003Z,10.97
2019-03-29T18:58:45.327Z,10.87
2019-03-29T19:01:25.744Z,10.73
2019-03-29T19:03:58.780Z,10.66
2019-03-29T19:06:32.065Z,10.55
2019-03-29T19:09:05.790Z,10.48
2019-03-29T19:11:45.413Z,10.45
2019-03-29T19:14:18.725Z,10.39
2019-03-29T19:16:59.832Z,10.32
2019-03-29T19:19:32.709Z,10.24
2019-03-29T19:22:07.416Z,10.15
2019-03-29T19:24:40.231Z,10.10
2019-03-29T19:27:16.356Z,10.09
2019-03-29T19:29:49.611Z,10.10
2019-03-29T19:32:27.275Z,10.07
2019-03-29T19:35:01.775Z,10.02
2019-03-29T19:37:38.247Z,9.94
2019-03-29T19:40:12.292Z,9.85
2019-03-29T19:42:49.155Z,9.80
2019-03-29T19:45:22.242Z,9.76
2019-03-29T19:47:58.989Z,9.79
2019-03-29T19:50:32.014Z,9.79
2019-03-29T19:53:08.157Z,9.78
2019-03-29T19:55:41.687Z,9.79
2019-03-29T19:58:18.143Z,9.78
2019-03-29T20:00:52.068Z,9.74
2019-03-29T20:03:29.393Z,9.69
2019-03-29T20:06:02.026Z,9.66
2019-03-29T20:08:42.380Z,9.71
2019-03-29T20:11:15.139Z,9.74
2019-03-29T20:13:50.691Z,9.84
2019-03-29T20:16:23.304Z,9.82
2019-03-29T20:19:04.064Z,9.77
2019-03-29T20:21:36.903Z,9.68
2019-03-29T20:24:13.051Z,9.57
2019-03-29T20:26:45.883Z,9.52
2019-03-29T20:29:19.078Z,9.39
2019-03-29T20:31:51.660Z,9.30
2019-03-29T20:34:32.330Z,9.25
2019-03-29T20:37:08.932Z,9.15
2019-03-29T20:39:41.381Z,9.04
2019-03-29T20:42:14.471Z,8.96
2019-03-29T20:44:50.723Z,8.88
2019-03-29T20:47:23.360Z,8.79
2019-03-29T20:50:07.303Z,8.65
2019-03-29T20:52:40.026Z,8.43
2019-03-29T20:55:16.599Z,8.32
2019-03-29T20:57:49.612Z,8.28
2019-03-29T21:00:27.061Z,8.26
2019-03-29T21:02:59.817Z,8.24
2019-03-29T21:05:32.680Z,8.20
2019-03-29T21:08:05.484Z,8.12
2019-03-29T21:10:54.954Z,8.04
2019-03-29T21:13:17.061Z,7.97
2019-03-29T21:15:53.846Z,7.85
2019-03-29T21:18:26.614Z,7.76
2019-03-29T21:21:02.385Z,7.69
2019-03-29T21:23:35.129Z,7.55
2019-03-29T21:26:07.869Z,7.48
2019-03-29T21:28:41.341Z,7.41
2019-03-29T21:31:14.164Z,7.37
2019-03-29T21:33:46.991Z,7.25
2019-03-29T21:36:19.617Z,7.20
2019-03-29T21:38:54.098Z,7.18
2019-03-29T21:41:47.460Z,7.08
2019-03-29T21:44:20.864Z,7.02
2019-03-29T21:46:55.052Z,6.89
2019-03-29T21:49:28.009Z,6.84
2019-03-29T21:52:00.797Z,6.79
2019-03-29T21:54:33.557Z,6.62
2019-03-29T21:57:06.493Z,6.49
2019-03-29T21:59:39.167Z,6.45
2019-03-29T22:02:12.161Z,6.39
2019-03-29T22:04:44.702Z,6.26
2019-03-29T22:07:17.255Z,6.15
2019-03-29T22:09:50.606Z,6.04
2019-03-29T22:12:23.987Z,6.03
2019-03-29T22:14:56.920Z,6.06
2019-03-29T22:17:29.755Z,5.93
2019-03-29T22:20:21.301Z,5.88
2019-03-29T22:22:54.102Z,5.81
2019-03-29T22:25:26.971Z,5.76
2019-03-29T22:27:59.863Z,5.67
2019-03-29T22:30:32.645Z,5.59
2019-03-29T22:33:05.361Z,5.52
2019-03-29T22:35:39.039Z,5.51
2019-03-29T22:38:12.126Z,5.51
2019-03-29T22:40:45.269Z,5.50
2019-03-29T22:43:18.313Z,5.36
2019-03-29T22:45:51.126Z,5.24
2019-03-29T22:48:23.915Z,5.08
2019-03-29T22:51:22.391Z,5.04
2019-03-29T22:53:55.201Z,5.03
2019-03-29T22:56:27.832Z,5.02
2019-03-29T22:59:00.339Z,4.97
2019-03-29T23:01:35.925Z,4.88
2019-03-29T23:04:08.361Z,4.80
2019-03-29T23:06:40.812Z,4.69
2019-03-29T23:09:13.776Z,4.62
2019-03-29T23:11:47.565Z,4.71
2019-03-29T23:14:20.321Z,4.77
2019-03-29T23:16:53.107Z,4.67
2019-03-29T23:19:26.062Z,4.60
2019-03-29T23:21:58.681Z,4.54
2019-03-29T23:24:31.305Z,4.45
2019-03-29T23:27:04.041Z,4.38
2019-03-29T23:29:36.611Z,4.32
2019-03-29T23:32:10.439Z,4.26
2019-03-29T23:34:43.108Z,4.19
2019-03-29T23:37:15.565Z,4.17
2019-03-29T23:39:48.119Z,4.12
2019-03-29T23:42:21.156Z,4.09
2019-03-29T23:44:53.556Z,4.03
2019-03-29T23:47:26.433Z,3.94
2019-03-29T23:49:59.788Z,3.86
2019-03-29T23:52:32.335Z,3.79
2019-03-29T23:55:04.957Z,3.74
2019-03-29T23:57:37.878Z,3.56
